Time;durP1;ratioP1;P1;durP2;ratioP2;P2;SDS_P1;SDS_P2;PMS_P1;PMS_P2;Temp;Humidity;BMP_temperature;BMP_pressure;BME280_temperature;BME280_humidity;BME280_pressure;Samples;Min_cycle;Max_cycle;Signal;HPM_P1;HPM_P2
2021/04/28 00:00:10;;;;;;;1.80;1.80;;;4.70;84.40;;;;;;5066909;28;20336;-62
2021/04/28 00:02:36;;;;;;;1.60;1.60;;;4.60;84.60;;;;;;5059004;28;20234;-62
2021/04/28 00:05:08;;;;;;;1.50;1.50;;;3.90;84.10;;;;;;5077092;28;20220;-63
2021/04/28 00:07:35;;;;;;;3.13;2.72;;;4.50;85.10;;;;;;5061739;28;20206;-61
2021/04/28 00:10:06;;;;;;;2.08;2.08;;;4.60;84.60;;;;;;5060280;28;20276;-61
2021/04/28 00:12:33;;;;;;;1.92;1.92;;;4.50;85.00;;;;;;5062120;28;20396;-63
2021/04/28 00:14:59;;;;;;;3.00;2.90;;;4.40;85.50;;;;;;5052661;28;20209;-64
2021/04/28 00:17:26;;;;;;;2.25;2.15;;;4.50;85.10;;;;;;5044785;28;20208;-63
2021/04/28 00:19:53;;;;;;;1.90;1.90;;;4.40;85.70;;;;;;5056234;28;20228;-61
2021/04/28 00:22:20;;;;;;;1.80;1.80;;;4.30;86.30;;;;;;5056994;28;20206;-62
2021/04/28 00:24:46;;;;;;;3.00;2.05;;;4.30;86.50;;;;;;5056292;28;20226;-62
2021/04/28 00:27:13;;;;;;;2.50;2.33;;;4.30;86.00;;;;;;5050998;28;20274;-65
2021/04/28 00:29:39;;;;;;;1.60;1.60;;;4.40;85.80;;;;;;5057754;28;20428;-63
2021/04/28 00:32:06;;;;;;;1.50;1.50;;;4.30;86.40;;;;;;5056943;28;20229;-63
2021/04/28 00:34:33;;;;;;;2.45;2.35;;;4.30;86.70;;;;;;5056621;28;20260;-62
2021/04/28 00:36:59;;;;;;;1.92;1.92;;;4.10;87.50;;;;;;5058117;28;20440;-62
2021/04/28 00:39:27;;;;;;;1.30;1.30;;;4.20;87.30;;;;;;5066167;28;20269;-61
2021/04/28 00:41:53;;;;;;;2.13;2.13;;;4.00;87.80;;;;;;5076863;28;20209;-62
2021/04/28 00:44:20;;;;;;;4.00;3.53;;;3.90;88.40;;;;;;5059743;28;20223;-61
2021/04/28 00:47:03;;;;;;;1.85;1.75;;;4.00;88.30;;;;;;5046932;28;20233;-62
2021/04/28 00:49:30;;;;;;;1.67;1.67;;;3.90;88.40;;;;;;5059845;28;20508;-63
2021/04/28 00:51:57;;;;;;;1.63;1.63;;;3.90;88.80;;;;;;5058057;28;20254;-62
2021/04/28 00:54:24;;;;;;;3.53;2.20;;;4.10;88.20;;;;;;5059502;28;20277;-62
2021/04/28 00:56:55;;;;;;;1.58;1.58;;;4.10;88.20;;;;;;5056576;28;20457;-62
2021/04/28 00:59:22;;;;;;;1.50;1.50;;;4.00;88.10;;;;;;5048392;28;20217;-62
2021/04/28 01:01:49;;;;;;;4.72;2.50;;;4.00;87.70;;;;;;5058507;28;20420;-63
2021/04/28 01:04:16;;;;;;;2.85;2.75;;;3.90;88.60;;;;;;5051998;28;20218;-62
2021/04/28 01:06:45;;;;;;;1.60;1.60;;;3.70;89.20;;;;;;5039853;28;20575;-62
2021/04/28 01:09:16;;;;;;;2.03;1.92;;;3.90;89.10;;;;;;5047005;28;20232;-62
2021/04/28 01:11:43;;;;;;;1.30;1.30;;;3.70;89.70;;;;;;5063937;28;20206;-62
2021/04/28 01:14:10;;;;;;;1.30;1.30;;;3.60;89.80;;;;;;5049187;28;20221;-62
2021/04/28 01:16:37;;;;;;;2.20;2.10;;;3.60;90.10;;;;;;5052863;28;20587;-62
2021/04/28 01:19:05;;;;;;;1.50;1.50;;;3.80;89.10;;;;;;5058342;28;20527;-62
2021/04/28 01:21:33;;;;;;;1.33;1.33;;;3.60;90.00;;;;;;5049162;28;20404;-62
2021/04/28 01:24:00;;;;;;;1.50;1.50;;;3.70;89.50;;;;;;5059793;28;20209;-62
2021/04/28 01:26:28;;;;;;;3.55;3.45;;;3.70;90.10;;;;;;5053807;28;20262;-62
2021/04/28 01:28:59;;;;;;;1.50;1.50;;;3.80;89.80;;;;;;5054950;28;20480;-62
2021/04/28 01:31:29;;;;;;;1.60;1.60;;;3.70;90.00;;;;;;5055164;28;20224;-62
2021/04/28 01:34:03;;;;;;;2.00;1.92;;;3.70;90.00;;;;;;5045777;28;20209;-62
2021/04/28 01:36:37;;;;;;;1.40;1.40;;;3.50;90.50;;;;;;5055775;28;20217;-61
2021/04/28 01:39:14;;;;;;;2.45;1.85;;;3.50;90.60;;;;;;5049815;28;20208;-62
2021/04/28 01:41:43;;;;;;;1.58;1.48;;;3.40;90.70;;;;;;5059298;28;20213;-61
2021/04/28 01:44:13;;;;;;;1.73;1.63;;;3.50;90.70;;;;;;5059583;28;20238;-62
2021/04/28 01:46:40;;;;;;;3.03;2.92;;;3.50;90.70;;;;;;5058079;28;20234;-62
2021/04/28 01:49:07;;;;;;;1.92;1.83;;;3.40;90.90;;;;;;5060337;28;20218;-62
2021/04/28 01:51:35;;;;;;;1.65;1.65;;;3.50;90.60;;;;;;5048739;28;20267;-62
2021/04/28 01:54:06;;;;;;;6.93;1.90;;;3.40;90.80;;;;;;5058874;28;20277;-61
2021/04/28 01:56:33;;;;;;;1.10;1.10;;;3.50;90.50;;;;;;5061539;28;20224;-63
2021/04/28 01:59:00;;;;;;;1.10;1.10;;;3.40;90.50;;;;;;5059207;28;20214;-62
2021/04/28 02:01:27;;;;;;;1.42;1.42;;;3.40;90.30;;;;;;5061921;28;20533;-62
2021/04/28 02:03:54;;;;;;;1.13;1.13;;;3.60;90.50;;;;;;5058345;28;20234;-61
2021/04/28 02:06:22;;;;;;;2.60;2.50;;;3.50;90.40;;;;;;5057583;28;20264;-62
2021/04/28 02:08:49;;;;;;;1.63;1.60;;;3.50;90.30;;;;;;5055389;28;20227;-61
2021/04/28 02:11:16;;;;;;;1.40;1.40;;;3.50;90.20;;;;;;5059582;28;20214;-63
2021/04/28 02:13:46;;;;;;;1.20;1.20;;;3.40;90.30;;;;;;5071392;28;20208;-60
2021/04/28 02:16:13;;;;;;;1.13;1.13;;;3.40;90.40;;;;;;5067912;28;20216;-61
2021/04/28 02:18:41;;;;;;;1.20;1.20;;;3.80;90.80;;;;;;5057232;28;20313;-61
2021/04/28 02:21:08;;;;;;;1.73;1.73;;;3.30;90.30;;;;;;5055943;28;20212;-63
2021/04/28 02:23:38;;;;;;;1.98;1.75;;;3.30;90.60;;;;;;5067108;28;20201;-62
2021/04/28 02:26:05;;;;;;;1.48;1.45;;;3.40;90.50;;;;;;5051654;28;20263;-61
2021/04/28 02:28:32;;;;;;;2.10;2.00;;;3.30;90.40;;;;;;5064475;28;20216;-61
2021/04/28 02:31:01;;;;;;;2.05;2.05;;;3.30;90.20;;;;;;5060471;28;20240;-61
2021/04/28 02:33:27;;;;;;;1.30;1.30;;;3.40;90.20;;;;;;5058126;28;20212;-61
2021/04/28 02:35:58;;;;;;;1.20;1.20;;;3.30;90.50;;;;;;5056630;28;20227;-63
2021/04/28 02:38:59;;;;;;;1.30;1.30;;;3.30;90.30;;;;;;5050521;28;20391;-62
2021/04/28 02:41:26;;;;;;;1.75;1.75;;;3.30;90.20;;;;;;5043254;28;20235;-61
2021/04/28 02:43:55;;;;;;;1.30;1.30;;;3.40;89.90;;;;;;5050253;28;20205;-62
2021/04/28 02:46:23;;;;;;;1.27;1.27;;;3.50;90.00;;;;;;5057258;28;20234;-62
2021/04/28 02:48:51;;;;;;;1.60;1.52;;;3.40;89.90;;;;;;5066516;28;20214;-62
2021/04/28 02:51:17;;;;;;;1.65;1.63;;;3.40;89.80;;;;;;5054806;28;20430;-62
2021/04/28 02:53:45;;;;;;;1.63;1.63;;;3.40;89.90;;;;;;5067075;28;20512;-62
2021/04/28 02:56:16;;;;;;;1.38;1.38;;;3.50;90.00;;;;;;5043649;28;20563;-61
2021/04/28 02:58:43;;;;;;;2.10;2.00;;;3.40;90.00;;;;;;5056155;28;20227;-62
2021/04/28 03:01:10;;;;;;;1.65;1.65;;;3.50;89.30;;;;;;5067598;28;20232;-61
2021/04/28 03:03:40;;;;;;;1.30;1.30;;;3.50;89.40;;;;;;5070644;28;20228;-61
2021/04/28 03:06:10;;;;;;;1.90;1.90;;;3.50;89.50;;;;;;5065993;28;20304;-61
2021/04/28 03:08:37;;;;;;;1.48;1.48;;;3.40;89.90;;;;;;5067472;28;20290;-62
2021/04/28 03:11:05;;;;;;;1.45;1.45;;;3.40;90.30;;;;;;5056841;28;20517;-62
2021/04/28 03:13:31;;;;;;;1.48;1.48;;;3.40;90.00;;;;;;5057629;28;20216;-61
2021/04/28 03:15:58;;;;;;;1.30;1.30;;;3.40;90.00;;;;;;5063079;28;20208;-62
2021/04/28 03:18:26;;;;;;;1.27;1.27;;;3.20;90.30;;;;;;5062110;28;20267;-61
2021/04/28 03:20:54;;;;;;;2.38;2.25;;;3.40;90.30;;;;;;5056649;28;20272;-62
2021/04/28 03:23:21;;;;;;;1.85;1.75;;;3.20;90.50;;;;;;5058476;28;20236;-60
2021/04/28 03:25:48;;;;;;;2.20;2.10;;;3.30;90.30;;;;;;5045918;28;20274;-61
2021/04/28 03:28:14;;;;;;;1.40;1.40;;;3.30;90.10;;;;;;5057625;28;20225;-62
2021/04/28 03:30:41;;;;;;;1.50;1.50;;;3.10;90.30;;;;;;5056379;28;20709;-61
2021/04/28 03:33:08;;;;;;;1.27;1.27;;;3.10;90.50;;;;;;5057480;28;20233;-62
2021/04/28 03:35:37;;;;;;;1.75;1.75;;;3.10;90.60;;;;;;5057091;28;20265;-61
2021/04/28 03:38:04;;;;;;;1.50;1.50;;;3.10;90.60;;;;;;5052016;28;20207;-62
2021/04/28 03:40:34;;;;;;;1.95;1.85;;;3.10;90.70;;;;;;5043162;28;20215;-62
2021/04/28 03:43:00;;;;;;;1.20;1.20;;;3.30;90.90;;;;;;5059311;28;20213;-61
2021/04/28 03:45:27;;;;;;;1.48;1.48;;;3.00;90.90;;;;;;5056744;28;20409;-62
2021/04/28 03:47:54;;;;;;;1.30;1.30;;;3.10;90.70;;;;;;5058682;28;20255;-61
2021/04/28 03:50:21;;;;;;;1.67;1.63;;;3.10;90.90;;;;;;5069039;28;20204;-62
2021/04/28 03:53:04;;;;;;;1.58;1.58;;;3.10;90.90;;;;;;5056856;28;20294;-62
2021/04/28 03:55:31;;;;;;;3.17;2.97;;;3.10;91.00;;;;;;5072472;28;20205;-62
2021/04/28 03:57:58;;;;;;;1.10;1.10;;;3.10;91.00;;;;;;5075526;28;20209;-61
2021/04/28 04:00:24;;;;;;;1.40;1.40;;;3.10;91.10;;;;;;5064606;28;20235;-62
2021/04/28 04:02:51;;;;;;;2.70;2.60;;;3.20;91.00;;;;;;5064086;28;20473;-62
2021/04/28 04:05:18;;;;;;;1.30;1.30;;;3.10;90.90;;;;;;5073040;28;20205;-61
2021/04/28 04:07:44;;;;;;;1.33;1.33;;;3.20;90.80;;;;;;5060766;28;20231;-62
2021/04/28 04:10:12;;;;;;;1.90;1.90;;;3.30;90.80;;;;;;5060275;28;20227;-62
2021/04/28 04:12:38;;;;;;;5.03;3.55;;;3.40;90.40;;;;;;5061329;28;20219;-62
2021/04/28 04:15:06;;;;;;;1.60;1.60;;;3.60;90.20;;;;;;5060010;28;20210;-62
2021/04/28 04:17:33;;;;;;;2.80;2.60;;;3.70;90.00;;;;;;5060645;28;20216;-61
2021/04/28 04:19:59;;;;;;;1.92;1.92;;;3.90;89.40;;;;;;5073039;28;20205;-61
2021/04/28 04:22:26;;;;;;;1.85;1.85;;;4.00;89.10;;;;;;5047601;28;20206;-62
2021/04/28 04:24:52;;;;;;;1.40;1.40;;;3.90;88.90;;;;;;5058881;28;20210;-61
2021/04/28 04:27:19;;;;;;;2.00;1.90;;;4.00;88.50;;;;;;5058489;28;20237;-62
2021/04/28 04:29:46;;;;;;;2.20;2.20;;;3.90;88.60;;;;;;5061018;28;20208;-62
2021/04/28 04:32:12;;;;;;;2.30;2.20;;;4.00;88.70;;;;;;5058676;28;20503;-61
2021/04/28 04:34:39;;;;;;;2.30;2.25;;;4.10;88.10;;;;;;5060502;28;20211;-63
2021/04/28 04:37:06;;;;;;;1.70;1.70;;;4.20;87.60;;;;;;5059400;28;20222;-61
2021/04/28 04:39:32;;;;;;;2.05;2.05;;;4.40;87.30;;;;;;5069944;28;20205;-63
2021/04/28 04:41:59;;;;;;;2.10;2.00;;;4.40;86.70;;;;;;5058601;28;20211;-63
2021/04/28 04:44:26;;;;;;;2.65;2.55;;;4.40;86.30;;;;;;5059132;28;20225;-63
2021/04/28 04:46:53;;;;;;;2.60;2.50;;;4.50;86.60;;;;;;5066810;28;20228;-63
2021/04/28 04:49:19;;;;;;;2.30;2.30;;;4.50;86.20;;;;;;5050879;28;20305;-62
2021/04/28 04:51:46;;;;;;;5.38;5.07;;;4.50;85.80;;;;;;5054195;28;20238;-62
2021/04/28 04:54:13;;;;;;;2.83;2.72;;;4.60;86.00;;;;;;5052359;28;20220;-62
2021/04/28 04:56:39;;;;;;;3.10;3.00;;;4.50;86.00;;;;;;5064223;28;20218;-61
2021/04/28 04:59:06;;;;;;;3.40;3.20;;;4.50;86.00;;;;;;5058911;28;20211;-61
2021/04/28 05:01:33;;;;;;;2.30;2.30;;;4.50;85.80;;;;;;5055449;28;20210;-62
2021/04/28 05:03:59;;;;;;;2.00;2.00;;;4.60;85.70;;;;;;5055550;28;20268;-62
2021/04/28 05:06:26;;;;;;;3.70;3.60;;;4.60;85.70;;;;;;5060225;28;20229;-63
2021/04/28 05:08:52;;;;;;;2.47;2.47;;;4.80;85.70;;;;;;5046132;28;20203;-62
2021/04/28 05:11:19;;;;;;;2.92;2.83;;;5.00;85.30;;;;;;5045115;28;20370;-62
2021/04/28 05:13:46;;;;;;;2.42;2.38;;;5.10;84.80;;;;;;5045440;28;20210;-62
2021/04/28 05:16:12;;;;;;;2.40;2.40;;;5.20;84.40;;;;;;5051947;28;20218;-62
2021/04/28 05:18:39;;;;;;;2.15;2.15;;;5.40;83.90;;;;;;5056713;28;20214;-60
2021/04/28 05:21:06;;;;;;;2.83;2.83;;;5.50;83.20;;;;;;5050731;28;20219;-61
2021/04/28 05:23:33;;;;;;;3.03;2.92;;;5.50;83.70;;;;;;5053565;28;20460;-63
2021/04/28 05:26:03;;;;;;;2.80;2.72;;;5.50;83.40;;;;;;5056653;28;20229;-63
2021/04/28 05:28:35;;;;;;;3.88;3.78;;;5.60;83.40;;;;;;5032782;28;20204;-62
2021/04/28 05:31:01;;;;;;;3.42;3.33;;;5.90;83.10;;;;;;5019973;28;20242;-61
2021/04/28 05:33:36;;;;;;;2.50;2.50;;;6.20;82.20;;;;;;5047900;28;20243;-62
2021/04/28 05:36:07;;;;;;;2.97;2.85;;;6.30;80.60;;;;;;5046136;28;20243;-62
2021/04/28 05:38:36;;;;;;;3.17;3.08;;;6.40;80.80;;;;;;5055046;28;20204;-63
2021/04/28 05:41:05;;;;;;;2.70;2.70;;;6.50;81.00;;;;;;5045178;28;20281;-61
2021/04/28 05:43:34;;;;;;;4.80;4.60;;;6.50;80.30;;;;;;5044799;28;20200;-62
2021/04/28 05:46:02;;;;;;;3.15;3.05;;;6.60;80.00;;;;;;5042854;28;20635;-61
2021/04/28 05:48:29;;;;;;;4.72;4.53;;;6.50;79.80;;;;;;5039618;28;20204;-63
2021/04/28 05:50:55;;;;;;;4.80;4.60;;;6.60;80.30;;;;;;5040843;28;20211;-61
2021/04/28 05:53:24;;;;;;;6.68;4.50;;;6.70;79.90;;;;;;5045216;28;20278;-62
2021/04/28 05:55:52;;;;;;;4.15;4.05;;;6.70;79.50;;;;;;5045561;28;20445;-62
2021/04/28 05:58:18;;;;;;;5.40;5.10;;;7.00;79.50;;;;;;5040197;28;20211;-62
2021/04/28 06:00:47;;;;;;;3.63;3.42;;;7.10;78.10;;;;;;5039435;28;20223;-61
2021/04/28 06:03:16;;;;;;;5.22;4.93;;;7.60;76.60;;;;;;5040929;28;20204;-62
2021/04/28 06:05:43;;;;;;;3.75;3.65;;;8.00;75.40;;;;;;5054484;28;20612;-62
2021/04/28 06:08:13;;;;;;;4.32;4.13;;;8.20;73.40;;;;;;5057391;28;20207;-62
2021/04/28 06:10:42;;;;;;;4.45;4.30;;;8.20;72.30;;;;;;5056932;28;20226;-65
2021/04/28 06:13:12;;;;;;;3.80;3.60;;;8.50;71.30;;;;;;5056891;28;20246;-62
2021/04/28 06:15:39;;;;;;;4.43;4.22;;;8.60;70.20;;;;;;5045266;28;20211;-63
2021/04/28 06:18:06;;;;;;;4.57;4.38;;;8.70;70.00;;;;;;5049720;28;20239;-61
2021/04/28 06:20:35;;;;;;;4.30;4.20;;;9.00;68.30;;;;;;5056868;28;20267;-62
2021/04/28 06:23:03;;;;;;;8.60;7.82;;;9.40;66.50;;;;;;5054792;28;20223;-63
2021/04/28 06:25:32;;;;;;;4.45;4.20;;;9.40;65.80;;;;;;5057979;28;20205;-63
2021/04/28 06:27:59;;;;;;;5.18;4.70;;;9.50;65.00;;;;;;5063222;28;20214;-62
2021/04/28 06:30:26;;;;;;;5.25;5.05;;;9.60;64.90;;;;;;5050072;28;20234;-63
2021/04/28 06:32:53;;;;;;;5.75;5.32;;;9.60;64.50;;;;;;5059568;28;20276;-61
2021/04/28 06:35:21;;;;;;;6.20;5.80;;;9.30;65.60;;;;;;5058111;28;20574;-62
2021/04/28 06:37:48;;;;;;;5.32;5.10;;;9.30;65.80;;;;;;5047910;28;20217;-62
2021/04/28 06:40:16;;;;;;;6.47;6.18;;;9.20;64.90;;;;;;5056296;28;20245;-62
2021/04/28 06:42:44;;;;;;;5.95;5.75;;;9.40;66.00;;;;;;5057173;28;20251;-61
2021/04/28 06:45:10;;;;;;;4.78;4.60;;;9.60;64.00;;;;;;5054976;28;20231;-63
2021/04/28 06:47:38;;;;;;;5.10;4.90;;;9.30;64.90;;;;;;5069380;28;20551;-62
2021/04/28 06:50:05;;;;;;;7.80;7.15;;;9.50;64.90;;;;;;5057461;28;20204;-62
2021/04/28 06:52:33;;;;;;;5.03;4.82;;;9.20;65.30;;;;;;5054493;28;20236;-62
2021/04/28 06:55:04;;;;;;;4.30;4.20;;;9.30;65.40;;;;;;5050217;28;20230;-61
2021/04/28 06:57:54;;;;;;;5.28;4.88;;;9.00;66.10;;;;;;5050752;28;20212;-62
2021/04/28 07:00:30;;;;;;;3.80;3.70;;;9.10;66.60;;;;;;5056893;28;20221;-63
2021/04/28 07:03:00;;;;;;;5.20;4.90;;;9.40;65.60;;;;;;5058102;28;20512;-62
2021/04/28 07:05:28;;;;;;;5.43;5.13;;;9.80;64.30;;;;;;5057365;28;20228;-62
2021/04/28 07:07:55;;;;;;;4.50;4.30;;;10.20;63.30;;;;;;5049814;28;20455;-61
2021/04/28 07:10:22;;;;;;;4.93;4.40;;;10.50;61.30;;;;;;5048685;28;20215;-62
2021/04/28 07:12:50;;;;;;;5.72;5.30;;;10.50;60.90;;;;;;5041388;28;20257;-62
2021/04/28 07:15:16;;;;;;;6.05;5.55;;;10.30;61.80;;;;;;5059903;28;20534;-62
2021/04/28 07:17:51;;;;;;;4.25;4.05;;;10.20;61.90;;;;;;5038353;28;20221;-61
2021/04/28 07:20:20;;;;;;;4.50;4.30;;;10.40;62.00;;;;;;5046864;28;20475;-66
2021/04/28 07:22:47;;;;;;;6.22;5.80;;;10.20;61.80;;;;;;5056856;28;20219;-63
2021/04/28 07:25:14;;;;;;;5.10;4.80;;;10.30;62.50;;;;;;5053384;28;20249;-62
2021/04/28 07:27:43;;;;;;;3.53;3.42;;;10.30;61.90;;;;;;5055371;28;20550;-62
2021/04/28 07:30:13;;;;;;;3.85;3.75;;;10.20;62.30;;;;;;5054175;28;20277;-63
2021/04/28 07:32:40;;;;;;;4.03;3.83;;;10.50;61.50;;;;;;5058271;28;20207;-62
2021/04/28 07:35:13;;;;;;;5.40;5.10;;;10.70;61.20;;;;;;5053738;28;20273;-63
2021/04/28 07:37:41;;;;;;;3.63;3.53;;;10.90;60.80;;;;;;5047937;28;20402;-63
2021/04/28 07:40:09;;;;;;;4.35;4.15;;;11.20;59.60;;;;;;5051781;28;20232;-62
2021/04/28 07:42:38;;;;;;;5.38;4.95;;;11.20;59.10;;;;;;5057615;28;20211;-63
2021/04/28 07:45:05;;;;;;;6.32;5.88;;;11.50;59.70;;;;;;5060932;28;20219;-62
2021/04/28 07:47:32;;;;;;;4.95;4.55;;;12.60;57.00;;;;;;5054594;28;20254;-62
2021/04/28 07:50:12;;;;;;;5.47;5.07;;;14.00;52.50;;;;;;5050576;28;20198;-62
2021/04/28 07:52:39;;;;;;;7.95;7.35;;;15.10;48.80;;;;;;5055258;28;20538;-63
2021/04/28 07:55:07;;;;;;;4.90;4.50;;;16.80;45.50;;;;;;5054211;28;20212;-62
2021/04/28 07:57:34;;;;;;;6.80;6.30;;;18.20;42.70;;;;;;5059758;28;20419;-64
2021/04/28 08:00:01;;;;;;;5.83;5.53;;;17.80;42.50;;;;;;5043985;28;20471;-63
2021/04/28 08:02:27;;;;;;;5.17;4.83;;;18.10;41.40;;;;;;5047823;28;20419;-62
2021/04/28 08:04:54;;;;;;;5.00;4.70;;;18.20;41.60;;;;;;5048369;28;20427;-64
2021/04/28 08:07:20;;;;;;;4.63;4.43;;;18.20;40.70;;;;;;5048857;28;20470;-62
2021/04/28 08:09:48;;;;;;;8.10;7.30;;;18.60;40.70;;;;;;5045105;28;20654;-64
2021/04/28 08:12:15;;;;;;;6.00;5.70;;;20.30;37.60;;;;;;5043711;28;20511;-63
2021/04/28 08:14:41;;;;;;;6.27;5.97;;;20.70;36.80;;;;;;5043891;28;20441;-63
2021/04/28 08:17:11;;;;;;;6.60;6.10;;;21.20;35.60;;;;;;5041753;28;20428;-62
2021/04/28 08:19:38;;;;;;;6.13;5.60;;;21.10;35.40;;;;;;5056572;28;20424;-63
2021/04/28 08:22:05;;;;;;;7.33;6.83;;;20.50;36.70;;;;;;5058255;28;20418;-64
2021/04/28 08:24:32;;;;;;;5.20;4.80;;;20.90;35.70;;;;;;5059868;28;20464;-63
2021/04/28 08:26:59;;;;;;;7.10;6.40;;;21.20;36.20;;;;;;5053427;28;20942;-62
2021/04/28 08:29:26;;;;;;;5.70;5.40;;;22.70;34.00;;;;;;5055765;28;20747;-62
2021/04/28 08:31:52;;;;;;;6.73;6.23;;;23.00;32.70;;;;;;5055916;28;20833;-63
2021/04/28 08:34:19;;;;;;;6.50;6.20;;;23.10;33.20;;;;;;5052071;28;20681;-64
2021/04/28 08:36:46;;;;;;;6.40;5.90;;;22.70;33.30;;;;;;5058524;28;20424;-64
2021/04/28 08:39:14;;;;;;;6.63;6.23;;;22.10;35.30;;;;;;5053639;28;20432;-63
2021/04/28 08:41:40;;;;;;;5.83;5.53;;;22.60;33.80;;;;;;5055956;28;20453;-64
2021/04/28 08:44:10;;;;;;;7.70;7.00;;;23.30;32.70;;;;;;5065378;28;20446;-63
2021/04/28 08:46:38;;;;;;;6.40;6.10;;;22.60;33.70;;;;;;5044701;28;20493;-64
2021/04/28 08:49:06;;;;;;;7.00;6.50;;;22.40;33.80;;;;;;5053199;28;20713;-65
2021/04/28 08:51:37;;;;;;;6.60;6.30;;;22.60;33.60;;;;;;5063701;28;20499;-62
2021/04/28 08:54:07;;;;;;;7.23;6.67;;;23.00;33.60;;;;;;5067269;28;20410;-62
2021/04/28 08:56:37;;;;;;;6.90;6.40;;;23.70;31.90;;;;;;5061549;28;20451;-63
2021/04/28 08:59:06;;;;;;;5.73;5.43;;;24.00;31.70;;;;;;5054010;28;20411;-62
2021/04/28 09:01:35;;;;;;;7.90;7.53;;;25.70;30.00;;;;;;5048551;28;20441;-62
2021/04/28 09:04:15;;;;;;;8.00;7.50;;;25.80;29.90;;;;;;5058707;28;20725;-64
2021/04/28 09:06:46;;;;;;;6.77;6.37;;;24.80;30.90;;;;;;5059309;28;20455;-64
2021/04/28 09:09:18;;;;;;;7.03;6.63;;;24.00;31.50;;;;;;5058604;28;20449;-63
2021/04/28 09:11:54;;;;;;;7.00;6.57;;;23.10;33.40;;;;;;5068297;28;20414;-63
2021/04/28 09:14:30;;;;;;;7.00;6.50;;;23.70;33.80;;;;;;5057470;28;21208;-64
2021/04/28 09:17:07;;;;;;;5.87;5.57;;;24.10;32.60;;;;;;5059173;28;20434;-63
2021/04/28 09:19:42;;;;;;;6.67;6.20;;;23.40;33.20;;;;;;5063800;28;20441;-64
2021/04/28 09:22:20;;;;;;;6.53;6.10;;;23.00;33.40;;;;;;5060318;28;20440;-63
2021/04/28 09:24:50;;;;;;;5.57;5.37;;;22.00;36.50;;;;;;5064711;28;20421;-65
2021/04/28 09:27:42;;;;;;;6.60;6.13;;;22.00;36.90;;;;;;5068672;28;20464;-63
2021/04/28 09:30:23;;;;;;;6.30;6.00;;;20.70;37.90;;;;;;5057872;28;20461;-64
2021/04/28 09:33:03;;;;;;;6.83;6.43;;;19.70;40.70;;;;;;5057170;28;20428;-65
2021/04/28 09:35:32;;;;;;;6.70;6.20;;;18.70;42.30;;;;;;5059032;28;20580;-64
2021/04/28 09:38:02;;;;;;;6.03;5.73;;;17.80;44.80;;;;;;5053343;28;20756;-64
2021/04/28 09:40:44;;;;;;;6.40;6.10;;;17.30;46.60;;;;;;5063105;28;20439;-63
2021/04/28 09:43:11;;;;;;;5.10;4.80;;;17.40;47.40;;;;;;5057642;28;20420;-65
2021/04/28 09:45:49;;;;;;;4.53;4.33;;;17.60;45.40;;;;;;5055114;28;20435;-64
2021/04/28 09:48:20;;;;;;;4.87;4.67;;;17.30;44.30;;;;;;5042414;28;20444;-64
2021/04/28 09:50:53;;;;;;;4.40;4.03;;;17.10;43.70;;;;;;5070427;28;20447;-63
2021/04/28 09:53:30;;;;;;;4.47;4.27;;;17.10;44.30;;;;;;5057460;28;20496;-64
2021/04/28 09:55:58;;;;;;;5.40;5.03;;;16.80;45.30;;;;;;5064489;28;20418;-68
2021/04/28 09:58:48;;;;;;;5.13;4.90;;;16.70;45.30;;;;;;5059601;28;20477;-66
2021/04/28 10:01:16;;;;;;;5.17;4.87;;;16.30;46.50;;;;;;5057589;28;20446;-63
2021/04/28 10:03:46;;;;;;;4.97;4.77;;;16.30;47.20;;;;;;5044556;28;20764;-64
2021/04/28 10:06:13;;;;;;;5.07;4.87;;;16.50;47.60;;;;;;5056902;28;20636;-64
2021/04/28 10:08:40;;;;;;;6.60;6.17;;;16.70;47.00;;;;;;5056878;28;20452;-64
2021/04/28 10:11:09;;;;;;;4.90;4.70;;;16.60;45.50;;;;;;5057688;28;20451;-63
2021/04/28 10:13:44;;;;;;;5.50;5.30;;;16.70;45.60;;;;;;5059982;28;20439;-64
2021/04/28 10:16:16;;;;;;;5.00;4.80;;;16.80;45.80;;;;;;5066491;28;20440;-65
2021/04/28 10:18:45;;;;;;;5.60;5.30;;;16.90;45.20;;;;;;5055156;28;20457;-64
2021/04/28 10:21:17;;;;;;;5.00;4.80;;;16.70;45.00;;;;;;5056942;28;20444;-65
2021/04/28 10:23:45;;;;;;;4.70;4.50;;;16.70;45.20;;;;;;5045081;28;20447;-64
2021/04/28 10:26:15;;;;;;;4.47;4.30;;;16.60;45.00;;;;;;5045237;28;20424;-63
2021/04/28 10:28:51;;;;;;;4.80;4.60;;;16.30;45.40;;;;;;5039548;28;20512;-63
2021/04/28 10:31:22;;;;;;;4.60;4.40;;;16.40;46.00;;;;;;5042331;28;20990;-64
2021/04/28 10:33:56;;;;;;;5.60;5.30;;;16.50;45.90;;;;;;5046755;28;20481;-64
2021/04/28 10:36:46;;;;;;;4.10;4.00;;;16.70;45.20;;;;;;5041229;28;20781;-63
2021/04/28 10:39:21;;;;;;;4.10;4.00;;;16.80;44.90;;;;;;5051979;28;20451;-65
2021/04/28 10:41:56;;;;;;;4.40;4.30;;;16.70;44.80;;;;;;5043695;28;20411;-63
2021/04/28 10:44:31;;;;;;;4.93;4.73;;;16.80;46.00;;;;;;5040219;28;20472;-62
2021/04/28 10:47:14;;;;;;;4.20;4.10;;;16.80;43.80;;;;;;5041281;28;20456;-64
2021/04/28 10:50:21;;;;;;;5.33;5.13;;;16.70;43.80;;;;;;5045377;28;20454;-64
2021/04/28 10:52:59;;;;;;;4.87;4.67;;;16.80;44.00;;;;;;5045506;28;20457;-64
2021/04/28 10:55:56;;;;;;;4.37;4.20;;;16.70;45.10;;;;;;5037137;28;20419;-64
2021/04/28 10:58:34;;;;;;;4.10;4.00;;;17.10;45.50;;;;;;5044011;28;20448;-65
2021/04/28 11:01:04;;;;;;;4.00;3.90;;;17.30;44.90;;;;;;5039073;28;20443;-64
2021/04/28 11:03:53;;;;;;;3.93;3.83;;;17.00;43.90;;;;;;5042162;28;20448;-64
2021/04/28 11:06:23;;;;;;;3.97;3.77;;;17.00;43.50;;;;;;5042121;28;20502;-65
2021/04/28 11:08:55;;;;;;;4.03;3.83;;;16.80;43.60;;;;;;5037820;28;20445;-66
2021/04/28 11:11:31;;;;;;;3.80;3.70;;;16.90;44.80;;;;;;5039881;28;20407;-63
2021/04/28 11:14:20;;;;;;;4.30;4.10;;;16.90;46.00;;;;;;5044729;28;20400;-64
2021/04/28 11:17:26;;;;;;;3.80;3.70;;;17.10;45.80;;;;;;5049356;28;20736;-65
2021/04/28 11:19:55;;;;;;;4.07;3.97;;;17.40;45.00;;;;;;5038038;28;20762;-64
2021/04/28 11:22:29;;;;;;;4.10;3.93;;;17.60;45.20;;;;;;5040765;28;20449;-63
2021/04/28 11:25:22;;;;;;;3.97;3.87;;;17.70;44.10;;;;;;5041403;28;20786;-64
2021/04/28 11:28:08;;;;;;;5.27;4.87;;;17.90;44.00;;;;;;5041767;28;20797;-63
2021/04/28 11:30:44;;;;;;;4.50;4.20;;;17.70;43.90;;;;;;5039002;28;20448;-64
2021/04/28 11:33:23;;;;;;;4.40;4.20;;;17.50;43.20;;;;;;5044077;28;20485;-63
2021/04/28 11:35:55;;;;;;;3.93;3.73;;;17.40;43.90;;;;;;5047288;28;20662;-65
2021/04/28 11:38:30;;;;;;;3.90;3.80;;;17.50;44.90;;;;;;5042237;28;20425;-64
2021/04/28 11:41:04;;;;;;;4.43;4.33;;;17.70;44.50;;;;;;5041545;28;20445;-64
2021/04/28 11:43:36;;;;;;;4.50;4.30;;;17.80;43.20;;;;;;5041314;28;20603;-64
2021/04/28 11:46:11;;;;;;;4.67;4.40;;;17.80;42.70;;;;;;5044726;28;20705;-63
2021/04/28 11:48:46;;;;;;;4.27;4.10;;;17.60;43.70;;;;;;5037993;28;20446;-66
2021/04/28 11:51:27;;;;;;;4.20;4.00;;;17.50;43.90;;;;;;5045003;28;20912;-64
2021/04/28 11:54:04;;;;;;;3.80;3.70;;;17.60;42.70;;;;;;5066026;28;20410;-65
2021/04/28 11:56:40;;;;;;;4.27;4.07;;;17.50;42.30;;;;;;5055259;28;20728;-64
2021/04/28 11:59:18;;;;;;;3.80;3.70;;;17.30;42.60;;;;;;5043155;28;20511;-64
2021/04/28 12:01:59;;;;;;;4.87;4.67;;;17.40;43.80;;;;;;5053659;28;20508;-64
2021/04/28 12:04:52;;;;;;;4.20;3.97;;;17.70;43.40;;;;;;5056571;28;20403;-63
2021/04/28 12:07:24;;;;;;;3.90;3.80;;;18.10;42.40;;;;;;5047823;28;20765;-64
2021/04/28 12:09:59;;;;;;;4.67;4.47;;;18.10;42.90;;;;;;5057786;28;20469;-64
2021/04/28 12:12:33;;;;;;;3.60;3.50;;;18.00;41.60;;;;;;5051012;28;20493;-64
2021/04/28 12:15:13;;;;;;;3.80;3.70;;;17.60;41.60;;;;;;5058026;28;20425;-63
2021/04/28 12:17:49;;;;;;;4.17;4.07;;;17.30;42.30;;;;;;5045297;28;20768;-64
2021/04/28 12:20:24;;;;;;;4.37;4.17;;;17.50;43.60;;;;;;5043540;28;20741;-63
2021/04/28 12:22:58;;;;;;;4.10;4.00;;;17.50;43.00;;;;;;5063967;28;20491;-64
2021/04/28 12:25:26;;;;;;;4.30;4.20;;;17.40;43.60;;;;;;5071979;28;20929;-63
2021/04/28 12:27:55;;;;;;;4.00;3.90;;;17.60;42.90;;;;;;5066886;28;20513;-64
2021/04/28 12:30:27;;;;;;;4.20;4.10;;;17.70;42.30;;;;;;5064436;28;20598;-63
2021/04/28 12:33:01;;;;;;;3.67;3.57;;;17.60;42.00;;;;;;5055890;28;20819;-67
2021/04/28 12:35:35;;;;;;;4.53;4.23;;;17.70;41.80;;;;;;5064959;28;20452;-64
2021/04/28 12:38:10;;;;;;;3.83;3.73;;;17.60;42.00;;;;;;5048873;28;20539;-65
2021/04/28 12:40:55;;;;;;;4.20;4.10;;;17.80;42.40;;;;;;5060236;28;20421;-64
2021/04/28 12:43:30;;;;;;;3.70;3.60;;;17.90;41.80;;;;;;5054048;28;20454;-62
2021/04/28 12:46:07;;;;;;;3.90;3.80;;;17.80;42.40;;;;;;5072669;28;20440;-64
2021/04/28 12:48:56;;;;;;;4.37;4.17;;;17.90;42.40;;;;;;5047486;28;20469;-64
2021/04/28 12:51:23;;;;;;;4.10;4.00;;;17.90;41.70;;;;;;5061154;28;20504;-64
2021/04/28 12:53:50;;;;;;;4.10;3.90;;;17.80;41.80;;;;;;5071196;28;20430;-65
2021/04/28 12:56:17;;;;;;;4.00;3.90;;;17.90;41.90;;;;;;5065311;28;20416;-65
2021/04/28 12:58:48;;;;;;;3.53;3.43;;;17.80;41.80;;;;;;5057820;28;20598;-64
2021/04/28 13:01:23;;;;;;;3.73;3.63;;;17.70;42.10;;;;;;5058809;28;20441;-64
2021/04/28 13:03:54;;;;;;;4.60;4.40;;;17.80;42.30;;;;;;5057036;28;20498;-64
2021/04/28 13:06:23;;;;;;;3.93;3.83;;;17.90;43.10;;;;;;5059126;28;20761;-65
2021/04/28 13:08:53;;;;;;;3.60;3.50;;;18.00;43.00;;;;;;5057645;28;20479;-63